createdAt,value
2024-01-15T00:00:59.225Z,1.77
2024-01-15T00:03:25.675Z,2.25
2024-01-15T00:05:52.046Z,1.90
2024-01-15T00:08:18.341Z,2.72
2024-01-15T00:10:44.693Z,2.20
2024-01-15T00:13:11.021Z,1.90
2024-01-15T00:15:37.487Z,1.70
2024-01-15T00:18:03.968Z,1.75
2024-01-15T00:20:31.239Z,2.08
2024-01-15T00:22:57.809Z,2.17
2024-01-15T00:25:24.894Z,2.33
2024-01-15T00:27:51.267Z,2.20
2024-01-15T00:30:17.777Z,2.13
2024-01-15T00:32:44.251Z,2.00
2024-01-15T00:35:10.695Z,2.53
2024-01-15T00:37:37.080Z,1.85
2024-01-15T00:40:03.620Z,2.05
2024-01-15T00:42:29.996Z,1.55
2024-01-15T00:44:56.508Z,2.70
2024-01-15T00:47:22.906Z,2.45
2024-01-15T00:49:49.412Z,1.77
2024-01-15T00:52:16.288Z,1.90
2024-01-15T00:54:42.641Z,1.50
2024-01-15T00:57:09.030Z,2.35
2024-01-15T00:59:35.370Z,1.50
2024-01-15T01:02:01.812Z,2.00
2024-01-15T01:04:28.179Z,2.08
2024-01-15T01:06:54.561Z,1.58
2024-01-15T01:09:21.011Z,2.60
2024-01-15T01:11:47.343Z,1.30
2024-01-15T01:14:13.768Z,2.58
2024-01-15T01:16:40.722Z,1.40
2024-01-15T01:19:08.185Z,2.17
2024-01-15T01:21:35.072Z,1.83
2024-01-15T01:24:01.484Z,2.05
2024-01-15T01:26:27.776Z,1.55
2024-01-15T01:28:54.122Z,1.33
2024-01-15T01:31:20.669Z,1.73
2024-01-15T01:33:47.098Z,2.05
2024-01-15T01:36:13.578Z,2.03
2024-01-15T01:38:40.900Z,2.13
2024-01-15T01:41:07.411Z,2.22
2024-01-15T01:43:33.877Z,1.35
2024-01-15T01:46:01.585Z,2.47
2024-01-15T01:48:28.563Z,1.95
2024-01-15T01:50:55.931Z,1.92
2024-01-15T01:53:22.808Z,1.98
2024-01-15T01:55:49.259Z,1.13
2024-01-15T01:58:16.023Z,2.00
2024-01-15T02:00:42.763Z,2.22
2024-01-15T02:03:09.556Z,1.40
2024-01-15T02:05:36.201Z,1.77
2024-01-15T02:08:02.655Z,2.40
2024-01-15T02:10:28.929Z,1.65
2024-01-15T02:12:55.317Z,1.88
2024-01-15T02:15:21.756Z,1.27
2024-01-15T02:18:14.262Z,1.85
2024-01-15T02:20:40.668Z,2.03
2024-01-15T02:23:07.001Z,1.80
2024-01-15T02:25:33.594Z,1.42
2024-01-15T02:28:00.054Z,1.33
2024-01-15T02:30:26.868Z,1.48
2024-01-15T02:32:53.808Z,1.58
2024-01-15T02:35:20.179Z,1.27
2024-01-15T02:37:46.502Z,1.73
2024-01-15T02:40:12.808Z,1.98
2024-01-15T02:42:39.123Z,0.65
2024-01-15T02:45:06.152Z,0.45
2024-01-15T02:47:32.531Z,0.93
2024-01-15T02:49:58.920Z,1.27
2024-01-15T02:52:25.240Z,0.70
2024-01-15T02:54:51.675Z,0.55
2024-01-15T02:57:18.095Z,1.30
2024-01-15T02:59:44.426Z,0.85
2024-01-15T03:02:10.725Z,1.75
2024-01-15T03:04:37.067Z,1.00
2024-01-15T03:07:03.482Z,1.20
2024-01-15T03:09:29.816Z,0.60
2024-01-15T03:11:56.111Z,0.90
2024-01-15T03:14:22.494Z,1.17
2024-01-15T03:16:48.862Z,1.35
2024-01-15T03:19:15.284Z,1.20
2024-01-15T03:21:41.712Z,2.28
2024-01-15T03:24:08.145Z,0.90
2024-01-15T03:26:34.576Z,0.82
2024-01-15T03:29:00.932Z,1.25
2024-01-15T03:31:27.318Z,1.10
2024-01-15T03:33:53.836Z,1.13
2024-01-15T03:36:20.357Z,1.40
2024-01-15T03:38:46.722Z,1.40
2024-01-15T03:41:13.490Z,1.05
2024-01-15T03:43:40.860Z,1.58
2024-01-15T03:46:07.795Z,1.35
2024-01-15T03:48:34.348Z,1.30
2024-01-15T03:51:00.682Z,0.90
2024-01-15T03:53:26.984Z,0.90
2024-01-15T03:55:53.404Z,0.77
2024-01-15T03:58:19.809Z,0.88
2024-01-15T04:00:46.200Z,0.93
2024-01-15T04:03:12.646Z,1.10
2024-01-15T04:05:39.581Z,1.25
2024-01-15T04:08:06.045Z,1.70
2024-01-15T04:10:32.500Z,1.25
2024-01-15T04:13:00.747Z,0.90
2024-01-15T04:15:27.160Z,1.25
2024-01-15T04:17:53.552Z,0.90
2024-01-15T04:20:21.642Z,1.77
2024-01-15T04:22:49.335Z,0.80
2024-01-15T04:25:15.674Z,1.30
2024-01-15T04:27:42.057Z,1.02
2024-01-15T04:30:08.726Z,1.50
2024-01-15T04:32:35.141Z,1.73
2024-01-15T04:35:01.518Z,2.15
2024-01-15T04:37:28.207Z,1.08
2024-01-15T04:39:56.144Z,1.30
2024-01-15T04:42:22.710Z,0.60
2024-01-15T04:44:49.149Z,1.00
2024-01-15T04:47:15.472Z,1.45
2024-01-15T04:49:41.771Z,1.42
2024-01-15T04:52:11.164Z,1.40
2024-01-15T04:54:37.757Z,1.83
2024-01-15T04:57:04.360Z,1.70
2024-01-15T04:59:30.699Z,1.48
2024-01-15T05:01:57.500Z,1.40
2024-01-15T05:04:23.976Z,1.60
2024-01-15T05:06:50.355Z,1.13
2024-01-15T05:09:16.873Z,1.40
2024-01-15T05:11:43.199Z,1.17
2024-01-15T05:14:09.543Z,1.10
2024-01-15T05:16:35.959Z,2.20
2024-01-15T05:19:02.452Z,6.85
2024-01-15T05:21:28.895Z,3.03
2024-01-15T05:23:55.207Z,2.40
2024-01-15T05:26:21.565Z,2.00
2024-01-15T05:28:48.008Z,1.48
2024-01-15T05:31:14.405Z,1.58
2024-01-15T05:33:41.476Z,1.00
2024-01-15T05:36:08.075Z,0.93
2024-01-15T05:38:34.547Z,1.48
2024-01-15T05:41:00.951Z,1.55
2024-01-15T05:43:27.318Z,1.55
2024-01-15T05:45:53.802Z,2.97
2024-01-15T05:48:20.266Z,5.65
2024-01-15T05:50:46.716Z,4.43
2024-01-15T05:53:13.052Z,1.38
2024-01-15T05:55:39.507Z,1.42
2024-01-15T05:58:06.469Z,1.80
2024-01-15T06:00:34.324Z,1.95
2024-01-15T06:03:00.947Z,1.50
2024-01-15T06:05:27.273Z,1.77
2024-01-15T06:07:53.764Z,1.20
2024-01-15T06:10:20.365Z,1.23
2024-01-15T06:12:46.756Z,1.23
2024-01-15T06:15:14.019Z,1.30
2024-01-15T06:17:40.535Z,2.05
2024-01-15T06:20:08.359Z,2.60
2024-01-15T06:22:34.769Z,3.47
2024-01-15T06:25:01.168Z,3.97
2024-01-15T06:27:27.513Z,4.53
2024-01-15T06:29:53.962Z,1.60
2024-01-15T06:32:20.364Z,2.20
2024-01-15T06:34:46.715Z,1.38
2024-01-15T06:37:13.027Z,1.90
2024-01-15T06:39:39.410Z,2.72
2024-01-15T06:42:05.950Z,1.52
2024-01-15T06:44:32.323Z,1.58
2024-01-15T06:47:03.387Z,1.90
2024-01-15T06:49:30.582Z,2.50
2024-01-15T06:51:57.112Z,3.00
2024-01-15T06:54:24.797Z,1.50
2024-01-15T06:56:51.636Z,1.35
2024-01-15T06:59:20.151Z,1.80
2024-01-15T07:01:46.903Z,1.40
2024-01-15T07:04:13.547Z,2.22
2024-01-15T07:06:40.041Z,1.90
2024-01-15T07:09:07.284Z,1.50
2024-01-15T07:11:33.602Z,1.75
2024-01-15T07:13:59.957Z,1.40
2024-01-15T07:16:36.356Z,2.70
2024-01-15T07:19:04.765Z,2.40
2024-01-15T07:21:31.308Z,2.40
2024-01-15T07:23:57.668Z,2.13
2024-01-15T07:26:24.033Z,2.38
2024-01-15T07:28:50.408Z,4.47
2024-01-15T07:31:17.180Z,4.82
2024-01-15T07:33:43.623Z,5.75
2024-01-15T07:36:10.051Z,3.85
2024-01-15T07:38:36.446Z,3.28
2024-01-15T07:41:02.875Z,2.75
2024-01-15T07:43:29.312Z,2.70
2024-01-15T07:45:55.797Z,2.83
2024-01-15T07:48:22.288Z,2.80
2024-01-15T07:50:48.695Z,2.17
2024-01-15T07:53:14.989Z,2.13
2024-01-15T07:55:41.278Z,2.40
2024-01-15T07:58:15.675Z,2.20
2024-01-15T08:00:43.467Z,1.80
2024-01-15T08:03:09.987Z,1.98
2024-01-15T08:05:36.617Z,1.70
2024-01-15T08:08:03.099Z,2.10
2024-01-15T08:10:30.048Z,3.40
2024-01-15T08:12:56.459Z,3.40
2024-01-15T08:15:23.023Z,3.20
2024-01-15T08:17:49.573Z,3.00
2024-01-15T08:20:17.081Z,3.10
2024-01-15T08:22:43.476Z,3.53
2024-01-15T08:25:10.026Z,3.30
2024-01-15T08:27:36.469Z,2.70
2024-01-15T08:30:02.890Z,3.40
2024-01-15T08:32:29.338Z,5.45
2024-01-15T08:34:55.797Z,4.95
2024-01-15T08:37:22.175Z,3.75
2024-01-15T08:39:51.320Z,3.03
2024-01-15T08:42:18.609Z,3.67
2024-01-15T08:44:44.932Z,2.47
2024-01-15T08:47:11.259Z,2.03
2024-01-15T08:49:38.167Z,4.00
2024-01-15T08:52:04.838Z,3.30
2024-01-15T08:54:31.200Z,3.00
2024-01-15T08:56:57.577Z,3.63
2024-01-15T08:59:26.950Z,2.80
2024-01-15T09:01:53.950Z,1.90
2024-01-15T09:04:20.599Z,3.03
2024-01-15T09:06:48.127Z,2.00
2024-01-15T09:09:15.618Z,2.83
2024-01-15T09:11:42.426Z,2.30
2024-01-15T09:14:10.199Z,1.92
2024-01-15T09:16:36.671Z,2.42
2024-01-15T09:19:03.279Z,2.42
2024-01-15T09:21:29.769Z,1.85
2024-01-15T09:23:56.099Z,1.25
2024-01-15T09:26:22.442Z,1.75
2024-01-15T09:28:48.794Z,2.03
2024-01-15T09:31:15.251Z,1.90
2024-01-15T09:33:41.810Z,1.92
2024-01-15T09:36:08.489Z,1.73
2024-01-15T09:38:34.845Z,1.25
2024-01-15T09:41:01.366Z,1.58
2024-01-15T09:43:27.781Z,1.10
2024-01-15T09:45:54.822Z,1.67
2024-01-15T09:48:21.397Z,1.33
2024-01-15T09:50:47.842Z,1.38
2024-01-15T09:53:16.092Z,1.50
2024-01-15T09:55:42.477Z,1.58
2024-01-15T09:58:09.172Z,1.75
2024-01-15T10:00:40.219Z,1.42
2024-01-15T10:03:07.781Z,1.58
2024-01-15T10:05:34.170Z,1.38
2024-01-15T10:08:01.873Z,1.25
2024-01-15T10:10:28.218Z,1.92
2024-01-15T10:12:56.104Z,1.73
2024-01-15T10:15:27.533Z,1.70
2024-01-15T10:17:54.067Z,1.98
2024-01-15T10:20:23.289Z,1.90
2024-01-15T10:22:51.435Z,2.30
2024-01-15T10:25:23.290Z,1.75
2024-01-15T10:27:59.776Z,1.95
2024-01-15T10:30:26.192Z,1.05
2024-01-15T10:33:02.443Z,2.17
2024-01-15T10:35:32.840Z,1.92
2024-01-15T10:38:02.659Z,2.05
2024-01-15T10:40:29.510Z,1.70
2024-01-15T10:42:55.983Z,1.90
2024-01-15T10:45:22.713Z,1.38
2024-01-15T10:47:49.780Z,1.35
2024-01-15T10:50:16.315Z,1.88
2024-01-15T10:52:44.070Z,1.63
2024-01-15T10:55:14.601Z,1.60
2024-01-15T10:57:45.712Z,1.42
2024-01-15T11:00:16.057Z,3.22
2024-01-15T11:02:43.354Z,3.92
2024-01-15T11:05:09.706Z,2.72
2024-01-15T11:07:37.021Z,1.88
2024-01-15T11:10:04.562Z,1.50
2024-01-15T11:12:32.278Z,1.33
2024-01-15T11:15:05.079Z,1.55
2024-01-15T11:17:51.495Z,1.90
2024-01-15T11:20:17.897Z,1.20
2024-01-15T11:22:46.978Z,1.55
2024-01-15T11:25:14.620Z,1.50
2024-01-15T11:27:45.295Z,1.67
2024-01-15T11:32:38.959Z,1.10
2024-01-15T11:35:07.532Z,0.80
2024-01-15T11:37:52.438Z,0.70
2024-01-15T11:40:20.090Z,1.13
2024-01-15T11:42:46.930Z,1.05
2024-01-15T11:45:13.267Z,1.50
2024-01-15T11:47:51.454Z,0.60
2024-01-15T11:50:18.638Z,0.90
2024-01-15T11:52:50.221Z,1.27
2024-01-15T11:55:22.740Z,0.80
2024-01-15T11:57:49.098Z,0.77
2024-01-15T12:00:16.350Z,0.70
2024-01-15T12:02:43.218Z,0.38
2024-01-15T12:05:10.488Z,0.82
2024-01-15T12:07:36.923Z,0.70
2024-01-15T12:10:04.068Z,1.20
2024-01-15T12:12:38.778Z,0.88
2024-01-15T12:15:05.501Z,1.52
2024-01-15T12:17:31.936Z,1.35
2024-01-15T12:19:58.330Z,0.93
2024-01-15T12:22:24.727Z,0.90
2024-01-15T12:24:51.104Z,1.00
2024-01-15T12:27:17.554Z,1.00
2024-01-15T12:29:44.076Z,0.98
2024-01-15T12:32:10.376Z,0.85
2024-01-15T12:34:38.581Z,1.38
2024-01-15T12:37:05.084Z,0.88
2024-01-15T12:39:31.517Z,0.90
2024-01-15T12:41:58.500Z,1.05
2024-01-15T12:44:25.208Z,1.25
2024-01-15T12:46:52.003Z,1.70
2024-01-15T12:49:18.397Z,1.20
2024-01-15T12:51:44.740Z,1.08
2024-01-15T12:54:11.087Z,1.35
2024-01-15T12:56:37.589Z,1.02
2024-01-15T12:59:04.770Z,0.73
2024-01-15T13:01:31.237Z,0.80
2024-01-15T13:03:57.722Z,0.80
2024-01-15T13:06:24.176Z,0.52
2024-01-15T13:08:50.577Z,1.08
2024-01-15T13:11:16.958Z,1.05
2024-01-15T13:13:43.288Z,0.88
2024-01-15T13:16:10.293Z,1.20
2024-01-15T13:18:36.720Z,0.65
2024-01-15T13:21:03.807Z,1.20
2024-01-15T13:23:30.136Z,0.90
2024-01-15T13:25:56.472Z,1.35
2024-01-15T13:28:23.820Z,1.77
2024-01-15T13:30:50.287Z,1.25
2024-01-15T13:33:16.764Z,1.30
2024-01-15T13:35:43.246Z,1.27
2024-01-15T13:38:09.980Z,1.42
2024-01-15T13:40:36.337Z,1.75
2024-01-15T13:43:03.009Z,1.52
2024-01-15T13:45:29.454Z,2.28
2024-01-15T13:47:55.821Z,1.23
2024-01-15T13:50:23.341Z,1.20
2024-01-15T13:52:50.963Z,1.63
2024-01-15T13:55:17.538Z,1.58
2024-01-15T13:57:43.989Z,1.73
2024-01-15T14:00:13.408Z,1.90
2024-01-15T14:02:40.176Z,1.60
2024-01-15T14:05:07.512Z,1.45
2024-01-15T14:07:33.965Z,1.35
2024-01-15T14:10:00.427Z,1.60
2024-01-15T14:12:27.692Z,1.50
2024-01-15T14:14:54.196Z,2.25
2024-01-15T14:17:20.523Z,1.45
2024-01-15T14:19:47.010Z,1.73
2024-01-15T14:22:13.441Z,1.95
2024-01-15T14:24:40.133Z,2.05
2024-01-15T14:27:08.125Z,1.30
2024-01-15T14:29:34.511Z,1.77
2024-01-15T14:32:00.820Z,1.30
2024-01-15T14:34:27.347Z,1.85
2024-01-15T14:36:57.080Z,1.75
2024-01-15T14:39:24.091Z,1.40
2024-01-15T14:41:50.715Z,1.48
2024-01-15T14:44:17.076Z,1.95
2024-01-15T14:46:43.514Z,2.08
2024-01-15T14:49:10.009Z,1.60
2024-01-15T14:51:36.357Z,1.95
2024-01-15T14:54:02.776Z,2.58
2024-01-15T14:56:30.178Z,2.03
2024-01-15T14:58:56.549Z,1.98
2024-01-15T15:01:24.200Z,4.10
2024-01-15T15:03:50.676Z,3.28
2024-01-15T15:06:17.729Z,2.30
2024-01-15T15:08:44.258Z,2.92
2024-01-15T15:11:12.047Z,1.83
2024-01-15T15:13:45.037Z,3.17
2024-01-15T15:16:13.751Z,2.78
2024-01-15T15:18:40.793Z,2.35
2024-01-15T15:21:08.449Z,2.35
2024-01-15T15:23:34.994Z,3.00
2024-01-15T15:26:01.327Z,2.35
2024-01-15T15:28:27.725Z,3.90
2024-01-15T15:30:54.200Z,4.03
2024-01-15T15:33:20.766Z,5.15
2024-01-15T15:35:47.237Z,2.70
2024-01-15T15:38:13.593Z,2.83
2024-01-15T15:40:39.904Z,3.83
2024-01-15T15:43:06.902Z,2.78
2024-01-15T15:45:33.358Z,2.63
2024-01-15T15:47:59.807Z,2.65
2024-01-15T15:50:26.828Z,2.78
2024-01-15T15:52:53.608Z,2.25
2024-01-15T15:55:20.005Z,2.10
2024-01-15T15:57:46.342Z,3.70
2024-01-15T16:00:13.018Z,1.65
2024-01-15T16:02:39.395Z,2.53
2024-01-15T16:05:10.570Z,2.17
2024-01-15T16:07:37.856Z,2.13
2024-01-15T16:10:04.400Z,1.73
2024-01-15T16:12:30.860Z,1.55
2024-01-15T16:14:57.262Z,1.20
2024-01-15T16:23:15.534Z,1.50
2024-01-15T16:23:29.256Z,1.30
2024-01-15T16:23:44.702Z,1.73
2024-01-15T16:25:43.381Z,2.10
2024-01-15T16:28:11.068Z,2.20
2024-01-15T16:30:44.928Z,1.30
2024-01-15T16:33:13.680Z,3.88
2024-01-15T16:35:40.474Z,2.83
2024-01-15T16:38:07.221Z,2.38
2024-01-15T16:40:33.607Z,2.40
2024-01-15T16:42:59.954Z,2.78
2024-01-15T16:45:27.050Z,3.15
2024-01-15T16:47:53.537Z,2.17
2024-01-15T16:50:20.041Z,2.72
2024-01-15T16:52:46.425Z,2.78
2024-01-15T16:55:14.529Z,2.92
2024-01-15T16:57:40.869Z,2.58
2024-01-15T17:00:08.253Z,2.30
2024-01-15T17:02:34.759Z,2.30
2024-01-15T17:05:01.378Z,2.58
2024-01-15T17:07:28.491Z,3.13
2024-01-15T17:09:54.815Z,3.28
2024-01-15T17:12:21.974Z,5.18
2024-01-15T17:14:48.321Z,2.75
2024-01-15T17:17:17.191Z,3.25
2024-01-15T17:19:43.688Z,3.03
2024-01-15T17:22:11.219Z,2.65
2024-01-15T17:24:37.755Z,2.17
2024-01-15T17:27:04.300Z,5.32
2024-01-15T17:29:32.825Z,2.70
2024-01-15T17:31:59.217Z,2.67
2024-01-15T17:34:25.588Z,3.80
2024-01-15T17:36:51.947Z,2.38
2024-01-15T17:39:18.699Z,2.28
2024-01-15T17:41:45.030Z,2.17
2024-01-15T17:44:11.412Z,8.55
2024-01-15T17:46:37.788Z,3.35
2024-01-15T17:49:04.720Z,3.22
2024-01-15T17:51:32.265Z,2.13
2024-01-15T17:53:58.783Z,3.10
2024-01-15T17:56:25.523Z,1.92
2024-01-15T17:58:51.889Z,2.53
2024-01-15T18:01:20.246Z,3.83
2024-01-15T18:03:47.159Z,3.15
2024-01-15T18:06:13.622Z,3.72
2024-01-15T18:08:41.214Z,4.40
2024-01-15T18:11:07.579Z,3.42
2024-01-15T18:13:33.949Z,4.13
2024-01-15T18:16:00.300Z,3.17
2024-01-15T18:18:26.950Z,3.50
2024-01-15T18:20:53.681Z,3.10
2024-01-15T18:23:20.084Z,3.90
2024-01-15T18:25:46.433Z,4.97
2024-01-15T18:28:15.612Z,4.40
2024-01-15T18:30:42.132Z,6.18
2024-01-15T18:33:08.901Z,4.05
2024-01-15T18:35:35.557Z,4.00
2024-01-15T18:38:02.048Z,6.88
2024-01-15T18:40:32.384Z,3.53
2024-01-15T18:42:58.769Z,5.32
2024-01-15T18:45:25.125Z,5.85
2024-01-15T18:47:51.482Z,4.25
2024-01-15T18:50:18.105Z,2.85
2024-01-15T18:52:44.426Z,2.63
2024-01-15T18:55:14.325Z,1.67
2024-01-15T18:57:43.392Z,2.93
2024-01-15T19:00:12.198Z,2.97
2024-01-15T19:02:38.670Z,2.85
2024-01-15T19:05:05.401Z,2.63
2024-01-15T19:07:33.973Z,6.07
2024-01-15T19:10:00.357Z,5.47
2024-01-15T19:12:26.726Z,3.90
2024-01-15T19:14:53.163Z,3.55
2024-01-15T19:17:20.596Z,2.35
2024-01-15T19:19:50.384Z,2.90
2024-01-15T19:22:16.717Z,2.42
2024-01-15T19:24:43.381Z,4.80
2024-01-15T19:27:09.807Z,5.63
2024-01-15T19:29:37.615Z,6.35
2024-01-15T19:32:04.301Z,4.63
2024-01-15T19:34:31.236Z,6.97
2024-01-15T19:36:57.630Z,7.55
2024-01-15T19:39:25.483Z,5.03
2024-01-15T19:41:51.779Z,9.82
2024-01-15T19:44:18.370Z,7.28
2024-01-15T19:46:44.717Z,5.93
2024-01-15T19:49:11.270Z,5.15
2024-01-15T19:51:37.641Z,5.22
2024-01-15T19:54:04.006Z,5.70
2024-01-15T19:56:30.526Z,5.55
2024-01-15T19:58:56.881Z,4.78
2024-01-15T20:01:23.209Z,5.78
2024-01-15T20:03:49.603Z,7.05
2024-01-15T20:06:16.131Z,4.80
2024-01-15T20:08:44.428Z,3.60
2024-01-15T20:11:11.307Z,5.80
2024-01-15T20:13:38.725Z,3.90
2024-01-15T20:16:13.218Z,7.68
2024-01-15T20:18:42.806Z,3.15
2024-01-15T20:21:09.578Z,3.88
2024-01-15T20:23:46.420Z,8.00
2024-01-15T20:26:21.073Z,4.82
2024-01-15T20:28:50.254Z,5.75
2024-01-15T20:31:16.914Z,4.50
2024-01-15T20:33:43.417Z,4.32
2024-01-15T20:36:09.790Z,4.65
2024-01-15T20:38:36.816Z,4.70
2024-01-15T20:41:04.305Z,4.00
2024-01-15T20:43:30.743Z,3.65
2024-01-15T20:45:57.201Z,4.15
2024-01-15T20:48:25.014Z,13.25
2024-01-15T20:50:52.010Z,5.35
2024-01-15T20:53:18.388Z,4.93
2024-01-15T20:55:44.782Z,4.40
2024-01-15T20:58:11.343Z,5.13
2024-01-15T21:00:37.797Z,4.10
2024-01-15T21:03:04.304Z,3.45
2024-01-15T21:05:31.109Z,4.15
2024-01-15T21:07:58.007Z,3.55
2024-01-15T21:10:24.364Z,3.95
2024-01-15T21:12:50.659Z,4.95
2024-01-15T21:15:17.182Z,3.88
2024-01-15T21:17:44.439Z,4.40
2024-01-15T21:20:12.367Z,5.07
2024-01-15T21:22:39.158Z,2.97
2024-01-15T21:25:05.909Z,3.67
2024-01-15T21:27:33.206Z,3.72
2024-01-15T21:29:59.747Z,3.80
2024-01-15T21:32:26.117Z,3.30
2024-01-15T21:34:54.662Z,3.20
2024-01-15T21:37:21.025Z,2.80
2024-01-15T21:39:47.385Z,3.38
2024-01-15T21:42:16.238Z,2.53
2024-01-15T21:44:43.174Z,2.42
2024-01-15T21:47:09.643Z,2.40
2024-01-15T21:49:35.955Z,2.65
2024-01-15T21:52:02.280Z,2.25
2024-01-15T21:54:28.644Z,3.05
2024-01-15T21:56:55.044Z,2.95
2024-01-15T21:59:21.538Z,3.00
2024-01-15T22:01:52.724Z,3.13
2024-01-15T22:04:19.447Z,2.70
2024-01-15T22:06:45.900Z,3.08
2024-01-15T22:09:12.241Z,2.65
2024-01-15T22:11:38.650Z,2.45
2024-01-15T22:14:05.715Z,2.53
2024-01-15T22:16:32.110Z,2.67
2024-01-15T22:19:02.483Z,2.25
2024-01-15T22:21:29.412Z,2.03
2024-01-15T22:23:55.744Z,1.98
2024-01-15T22:26:22.120Z,2.28
2024-01-15T22:28:48.438Z,2.38
2024-01-15T22:31:14.779Z,2.30
2024-01-15T22:33:41.215Z,3.10
2024-01-15T22:36:08.143Z,3.35
2024-01-15T22:38:34.540Z,2.58
2024-01-15T22:41:01.193Z,2.70
2024-01-15T22:43:28.247Z,2.60
2024-01-15T22:45:54.722Z,1.90
2024-01-15T22:48:21.198Z,1.85
2024-01-15T22:50:47.636Z,1.75
2024-01-15T22:53:14.108Z,2.20
2024-01-15T22:55:40.475Z,2.15
2024-01-15T22:58:06.867Z,1.73
2024-01-15T23:00:34.041Z,1.75
2024-01-15T23:03:02.245Z,1.33
2024-01-15T23:05:28.717Z,1.90
2024-01-15T23:07:55.275Z,1.60
2024-01-15T23:10:21.701Z,1.80
2024-01-15T23:12:48.744Z,1.92
2024-01-15T23:15:15.224Z,1.80
2024-01-15T23:17:44.137Z,1.67
2024-01-15T23:20:12.129Z,1.40
2024-01-15T23:22:40.760Z,1.48
2024-01-15T23:25:07.682Z,2.75
2024-01-15T23:27:34.017Z,1.60
2024-01-15T23:30:00.467Z,3.03
2024-01-15T23:32:27.069Z,2.22
2024-01-15T23:34:53.482Z,2.28
2024-01-15T23:37:19.819Z,2.53
2024-01-15T23:39:46.192Z,2.67
2024-01-15T23:42:15.010Z,2.78
2024-01-15T23:44:41.850Z,2.33
2024-01-15T23:47:08.515Z,2.35
2024-01-15T23:49:35.000Z,2.22
2024-01-15T23:52:01.493Z,2.50
2024-01-15T23:54:27.829Z,1.95
2024-01-15T23:56:54.270Z,2.10
2024-01-15T23:59:20.709Z,2.63
